Lowell Highlands, MA

10 Minute Time Series

17-Jul-2018 11:00 AM

TimeTempHumidityDewpointBarometerWindSpeedWindGustWind DirRain
17-Jul-2018 12:10 AM75.1°F88%71.3°F29.895 inHg1 mph3 mph146° (SE)0.00 in
17-Jul-2018 12:20 AM75.1°F88%71.3°F29.894 inHg1 mph3 mph146° (SSE)0.00 in
17-Jul-2018 12:30 AM75.2°F88%71.4°F29.892 inHg1 mph3 mph149° (SSE)0.00 in
17-Jul-2018 12:40 AM75.2°F88%71.4°F29.889 inHg1 mph4 mph167° (SSE)0.00 in
17-Jul-2018 12:50 AM75.2°F88%71.4°F29.883 inHg2 mph4 mph170° (S)0.00 in
17-Jul-2018 01:00 AM75.3°F88%71.5°F29.881 inHg2 mph4 mph160° (SSE)0.00 in
17-Jul-2018 01:10 AM75.3°F89%71.8°F29.875 inHg2 mph4 mph164° (SSE)0.00 in
17-Jul-2018 01:20 AM75.2°F89%71.7°F29.872 inHg1 mph5 mph167° (SSE)0.00 in
17-Jul-2018 01:30 AM75.1°F89%71.6°F29.868 inHg3 mph6 mph169° (SSE)0.00 in
17-Jul-2018 01:40 AM74.9°F89%71.4°F29.869 inHg2 mph6 mph176° (S)0.00 in
17-Jul-2018 01:50 AM74.7°F89%71.2°F29.866 inHg1 mph4 mph181° (S)0.00 in
17-Jul-2018 02:00 AM74.4°F90%71.3°F29.865 inHg1 mph4 mph170° (S)0.00 in
17-Jul-2018 02:10 AM74.2°F90%71.1°F29.866 inHg1 mph4 mph155° (SSE)0.00 in
17-Jul-2018 02:20 AM74.0°F90%70.9°F29.864 inHg2 mph6 mph167° (SSE)0.00 in
17-Jul-2018 02:30 AM73.9°F91%71.1°F29.860 inHg2 mph6 mph170° (S)0.00 in
17-Jul-2018 02:40 AM73.7°F91%70.9°F29.855 inHg3 mph7 mph169° (S)0.00 in
17-Jul-2018 02:50 AM73.6°F91%70.8°F29.849 inHg3 mph7 mph162° (SSE)0.00 in
17-Jul-2018 03:00 AM73.5°F91%70.7°F29.850 inHg3 mph7 mph163° (SSE)0.00 in
17-Jul-2018 03:10 AM73.3°F91%70.5°F29.851 inHg2 mph7 mph162° (SSE)0.00 in
17-Jul-2018 03:20 AM73.1°F91%70.3°F29.847 inHg2 mph6 mph160° (SSE)0.00 in
17-Jul-2018 03:30 AM73.0°F91%70.2°F29.843 inHg2 mph6 mph157° (SSE)0.00 in
17-Jul-2018 03:40 AM72.9°F92%70.4°F29.840 inHg2 mph6 mph156° (SSE)0.00 in
17-Jul-2018 03:50 AM72.7°F92%70.2°F29.841 inHg2 mph5 mph173° (S)0.00 in
17-Jul-2018 04:00 AM72.6°F92%70.1°F29.847 inHg1 mph5 mph165° (SSE)0.00 in
17-Jul-2018 04:10 AM72.5°F92%70.0°F29.841 inHg1 mph6 mph161° (SSE)0.00 in
17-Jul-2018 04:20 AM72.4°F92%69.9°F29.839 inHg2 mph6 mph179° (S)0.00 in
17-Jul-2018 04:30 AM72.3°F92%69.8°F29.835 inHg1 mph6 mph175° (S)0.00 in
17-Jul-2018 04:40 AM72.2°F92%69.7°F29.834 inHg1 mph4 mph168° (SSE)0.00 in
17-Jul-2018 04:50 AM72.1°F93%70.0°F29.832 inHg1 mph4 mph160° (SSE)0.00 in
17-Jul-2018 05:00 AM72.0°F93%69.9°F29.830 inHg1 mph5 mph167° (SSE)0.00 in
17-Jul-2018 05:10 AM72.0°F93%69.9°F29.828 inHg1 mph5 mph155° (SSE)0.00 in
17-Jul-2018 05:20 AM71.9°F93%69.8°F29.827 inHg2 mph5 mph157° (SSE)0.00 in
17-Jul-2018 05:30 AM71.8°F93%69.7°F29.825 inHg2 mph5 mph152° (SSE)0.00 in
17-Jul-2018 05:40 AM71.8°F94%70.0°F29.828 inHg1 mph5 mph133° (SE)0.00 in
17-Jul-2018 05:50 AM71.8°F94%70.0°F29.831 inHg2 mph5 mph158° (SSE)0.00 in
17-Jul-2018 06:00 AM71.8°F94%70.0°F29.837 inHg1 mph5 mph185° (S)0.00 in
17-Jul-2018 06:10 AM71.8°F94%70.0°F29.837 inHg1 mph3 mph184° (S)0.00 in
17-Jul-2018 06:20 AM71.9°F94%70.1°F29.835 inHg1 mph5 mph175° (S)0.00 in
17-Jul-2018 06:30 AM72.0°F94%70.2°F29.832 inHg2 mph5 mph181° (S)0.00 in
17-Jul-2018 06:40 AM72.2°F94%70.4°F29.830 inHg2 mph7 mph166° (SSE)0.00 in
17-Jul-2018 06:50 AM72.5°F94%70.7°F29.824 inHg2 mph7 mph178° (S)0.00 in
17-Jul-2018 07:00 AM72.8°F94%71.0°F29.825 inHg2 mph7 mph176° (S)0.00 in
17-Jul-2018 07:10 AM73.2°F94%71.4°F29.823 inHg1 mph6 mph183° (S)0.00 in
17-Jul-2018 07:20 AM73.9°F93%71.7°F29.820 inHg2 mph5 mph174° (S)0.00 in
17-Jul-2018 07:30 AM74.7°F92%72.2°F29.827 inHg2 mph5 mph193° (SSW)0.00 in
17-Jul-2018 07:40 AM75.3°F90%72.2°F29.828 inHg2 mph6 mph198° (SSW)0.00 in
17-Jul-2018 07:50 AM75.5°F89%72.0°F29.829 inHg2 mph8 mph189° (S)0.00 in
17-Jul-2018 08:00 AM75.7°F89%72.2°F29.828 inHg2 mph8 mph195° (SSW)0.00 in
17-Jul-2018 08:10 AM76.7°F88%72.9°F29.826 inHg2 mph7 mph185° (S)0.00 in
17-Jul-2018 08:20 AM77.3°F86%72.8°F29.821 inHg3 mph8 mph220° (SW)0.00 in
17-Jul-2018 08:30 AM77.8°F86%73.3°F29.819 inHg2 mph8 mph204° (SSW)0.00 in
17-Jul-2018 08:40 AM78.6°F84%73.3°F29.819 inHg3 mph9 mph194° (SSW)0.00 in
17-Jul-2018 08:50 AM79.7°F82%73.7°F29.817 inHg3 mph9 mph195° (SSW)0.00 in
17-Jul-2018 09:00 AM80.7°F80%73.9°F29.813 inHg4 mph8 mph189° (S)0.00 in
17-Jul-2018 09:10 AM81.6°F79%74.4°F29.807 inHg3 mph7 mph211° (SSW)0.00 in
17-Jul-2018 09:20 AM81.9°F79%74.7°F29.801 inHg4 mph11 mph186° (S)0.00 in
17-Jul-2018 09:30 AM83.4°F75%74.6°F29.797 inHg3 mph11 mph185° (S)0.00 in
17-Jul-2018 09:40 AM84.2°F74%75.0°F29.796 inHg3 mph9 mph187° (S)0.00 in
17-Jul-2018 09:50 AM84.1°F74%74.9°F29.796 inHg3 mph11 mph206° (SSW)0.00 in
17-Jul-2018 10:00 AM84.6°F73%75.0°F29.797 inHg3 mph11 mph202° (SSW)0.00 in
17-Jul-2018 10:10 AM85.6°F72%75.5°F29.796 inHg3 mph11 mph176° (S)0.00 in
17-Jul-2018 10:20 AM85.6°F71%75.1°F29.794 inHg3 mph10 mph189° (S)0.00 in
17-Jul-2018 10:30 AM86.9°F69%75.5°F29.791 inHg2 mph11 mph217° (SW)0.00 in
17-Jul-2018 10:40 AM86.6°F67%74.3°F29.786 inHg5 mph17 mph197° (SSW)0.00 in
17-Jul-2018 10:50 AM87.6°F68%75.7°F29.786 inHg4 mph17 mph186° (S)0.00 in
17-Jul-2018 11:00 AM89.1°F66%76.2°F29.784 inHg3 mph10 mph191° (S)0.00 in